sensor_id;sensor_type;location;lat;lon;timestamp;P1;durP1;ratioP1;P2;durP2;ratioP2
57307;SDS011;43152;50.968;18.214;2023-11-19T00:00:20;79.20;;;26.80;;
57307;SDS011;43152;50.968;18.214;2023-11-19T00:10:10;31.00;;;9.40;;
57307;SDS011;43152;50.968;18.214;2023-11-19T00:20:04;51.60;;;19.40;;
57307;SDS011;43152;50.968;18.214;2023-11-19T00:29:48;76.60;;;27.60;;
57307;SDS011;43152;50.968;18.214;2023-11-19T00:39:32;42.90;;;16.20;;
57307;SDS011;43152;50.968;18.214;2023-11-19T00:49:14;59.20;;;20.60;;
57307;SDS011;43152;50.968;18.214;2023-11-19T00:58:57;46.30;;;19.50;;
57307;SDS011;43152;50.968;18.214;2023-11-19T01:08:42;50.70;;;19.90;;
57307;SDS011;43152;50.968;18.214;2023-11-19T01:18:38;52.90;;;17.90;;
57307;SDS011;43152;50.968;18.214;2023-11-19T01:35:37;42.20;;;16.80;;
57307;SDS011;43152;50.968;18.214;2023-11-19T01:45:29;22.60;;;10.00;;
57307;SDS011;43152;50.968;18.214;2023-11-19T01:55:19;36.40;;;13.70;;
57307;SDS011;43152;50.968;18.214;2023-11-19T02:05:05;44.70;;;14.00;;
57307;SDS011;43152;50.968;18.214;2023-11-19T02:14:53;32.70;;;13.00;;
57307;SDS011;43152;50.968;18.214;2023-11-19T02:24:42;33.30;;;11.60;;
57307;SDS011;43152;50.968;18.214;2023-11-19T02:34:27;27.90;;;12.20;;
57307;SDS011;43152;50.968;18.214;2023-11-19T02:44:12;32.80;;;12.30;;
57307;SDS011;43152;50.968;18.214;2023-11-19T02:53:58;29.10;;;12.00;;
57307;SDS011;43152;50.968;18.214;2023-11-19T03:03:54;32.30;;;12.60;;
57307;SDS011;43152;50.968;18.214;2023-11-19T03:13:39;29.00;;;11.90;;
57307;SDS011;43152;50.968;18.214;2023-11-19T03:23:22;33.60;;;11.60;;
57307;SDS011;43152;50.968;18.214;2023-11-19T03:33:05;27.10;;;11.70;;
57307;SDS011;43152;50.968;18.214;2023-11-19T03:42:47;40.80;;;14.50;;
57307;SDS011;43152;50.968;18.214;2023-11-19T03:52:31;40.50;;;13.60;;
57307;SDS011;43152;50.968;18.214;2023-11-19T04:02:13;29.00;;;12.20;;
57307;SDS011;43152;50.968;18.214;2023-11-19T04:11:58;24.40;;;7.90;;
57307;SDS011;43152;50.968;18.214;2023-11-19T04:21:42;25.40;;;10.50;;
57307;SDS011;43152;50.968;18.214;2023-11-19T04:31:29;30.40;;;11.00;;
57307;SDS011;43152;50.968;18.214;2023-11-19T04:41:15;38.40;;;15.70;;
57307;SDS011;43152;50.968;18.214;2023-11-19T04:50:57;41.10;;;16.20;;
57307;SDS011;43152;50.968;18.214;2023-11-19T05:00:39;45.30;;;15.20;;
57307;SDS011;43152;50.968;18.214;2023-11-19T05:10:21;43.00;;;14.20;;
57307;SDS011;43152;50.968;18.214;2023-11-19T05:20:04;37.60;;;17.30;;
57307;SDS011;43152;50.968;18.214;2023-11-19T05:29:49;48.20;;;17.60;;
57307;SDS011;43152;50.968;18.214;2023-11-19T05:39:31;45.90;;;17.40;;
57307;SDS011;43152;50.968;18.214;2023-11-19T05:49:13;41.00;;;15.10;;
57307;SDS011;43152;50.968;18.214;2023-11-19T05:58:59;42.10;;;14.20;;
57307;SDS011;43152;50.968;18.214;2023-11-19T06:08:57;40.50;;;14.30;;
57307;SDS011;43152;50.968;18.214;2023-11-19T06:18:41;32.50;;;7.10;;
57307;SDS011;43152;50.968;18.214;2023-11-19T06:28:23;39.30;;;14.40;;
57307;SDS011;43152;50.968;18.214;2023-11-19T06:38:06;37.90;;;15.20;;
57307;SDS011;43152;50.968;18.214;2023-11-19T06:47:49;40.10;;;11.60;;
57307;SDS011;43152;50.968;18.214;2023-11-19T06:57:32;35.30;;;13.50;;
57307;SDS011;43152;50.968;18.214;2023-11-19T07:07:15;35.60;;;13.30;;
57307;SDS011;43152;50.968;18.214;2023-11-19T07:16:57;39.90;;;16.30;;
57307;SDS011;43152;50.968;18.214;2023-11-19T07:26:43;42.00;;;19.10;;
57307;SDS011;43152;50.968;18.214;2023-11-19T07:48:24;44.30;;;19.70;;
57307;SDS011;43152;50.968;18.214;2023-11-19T07:58:13;41.00;;;17.20;;
57307;SDS011;43152;50.968;18.214;2023-11-19T08:09:16;41.90;;;18.10;;
57307;SDS011;43152;50.968;18.214;2023-11-19T08:19:02;46.60;;;16.60;;
57307;SDS011;43152;50.968;18.214;2023-11-19T08:28:45;29.50;;;10.80;;
57307;SDS011;43152;50.968;18.214;2023-11-19T08:38:30;39.70;;;13.20;;
57307;SDS011;43152;50.968;18.214;2023-11-19T08:48:16;36.20;;;16.70;;
57307;SDS011;43152;50.968;18.214;2023-11-19T08:57:59;46.40;;;15.80;;
57307;SDS011;43152;50.968;18.214;2023-11-19T09:07:41;37.30;;;15.10;;
57307;SDS011;43152;50.968;18.214;2023-11-19T09:17:25;84.00;;;29.50;;
57307;SDS011;43152;50.968;18.214;2023-11-19T09:27:09;42.10;;;17.80;;
57307;SDS011;43152;50.968;18.214;2023-11-19T09:36:53;53.50;;;21.00;;
57307;SDS011;43152;50.968;18.214;2023-11-19T09:46:37;38.00;;;18.50;;
57307;SDS011;43152;50.968;18.214;2023-11-19T09:56:25;27.30;;;11.50;;
57307;SDS011;43152;50.968;18.214;2023-11-19T10:06:09;30.00;;;11.60;;
57307;SDS011;43152;50.968;18.214;2023-11-19T10:15:57;33.40;;;13.60;;
57307;SDS011;43152;50.968;18.214;2023-11-19T10:25:42;52.50;;;20.10;;
57307;SDS011;43152;50.968;18.214;2023-11-19T10:35:35;45.20;;;21.00;;
57307;SDS011;43152;50.968;18.214;2023-11-19T10:45:38;55.90;;;24.60;;
57307;SDS011;43152;50.968;18.214;2023-11-19T10:55:27;43.30;;;17.70;;
57307;SDS011;43152;50.968;18.214;2023-11-19T11:05:43;26.50;;;11.60;;
57307;SDS011;43152;50.968;18.214;2023-11-19T11:15:37;32.80;;;16.90;;
57307;SDS011;43152;50.968;18.214;2023-11-19T11:36:19;26.10;;;13.20;;
57307;SDS011;43152;50.968;18.214;2023-11-19T11:56:33;24.00;;;11.60;;
57307;SDS011;43152;50.968;18.214;2023-11-19T12:06:21;47.20;;;20.00;;
57307;SDS011;43152;50.968;18.214;2023-11-19T12:16:14;31.40;;;13.30;;
57307;SDS011;43152;50.968;18.214;2023-11-19T12:25:58;22.20;;;8.70;;
57307;SDS011;43152;50.968;18.214;2023-11-19T12:35:43;17.50;;;8.20;;
57307;SDS011;43152;50.968;18.214;2023-11-19T12:53:49;16.60;;;8.10;;
57307;SDS011;43152;50.968;18.214;2023-11-19T13:03:40;32.40;;;13.40;;
57307;SDS011;43152;50.968;18.214;2023-11-19T13:13:31;27.80;;;10.10;;
57307;SDS011;43152;50.968;18.214;2023-11-19T13:23:22;25.10;;;12.80;;
57307;SDS011;43152;50.968;18.214;2023-11-19T13:33:05;33.00;;;15.00;;
57307;SDS011;43152;50.968;18.214;2023-11-19T13:42:49;20.70;;;7.30;;
57307;SDS011;43152;50.968;18.214;2023-11-19T13:52:35;109.60;;;39.90;;
57307;SDS011;43152;50.968;18.214;2023-11-19T14:02:22;84.10;;;28.10;;
57307;SDS011;43152;50.968;18.214;2023-11-19T14:12:07;33.10;;;14.20;;
57307;SDS011;43152;50.968;18.214;2023-11-19T14:21:54;49.50;;;25.10;;
57307;SDS011;43152;50.968;18.214;2023-11-19T14:31:38;129.00;;;52.90;;
57307;SDS011;43152;50.968;18.214;2023-11-19T14:41:23;89.70;;;42.00;;
57307;SDS011;43152;50.968;18.214;2023-11-19T14:51:05;178.90;;;58.70;;
57307;SDS011;43152;50.968;18.214;2023-11-19T15:00:47;109.10;;;37.60;;
57307;SDS011;43152;50.968;18.214;2023-11-19T15:10:32;210.50;;;45.10;;
57307;SDS011;43152;50.968;18.214;2023-11-19T15:20:14;82.30;;;32.80;;
57307;SDS011;43152;50.968;18.214;2023-11-19T15:30:01;101.20;;;58.20;;
57307;SDS011;43152;50.968;18.214;2023-11-19T15:39:48;89.50;;;47.80;;
57307;SDS011;43152;50.968;18.214;2023-11-19T15:49:34;44.10;;;24.50;;
57307;SDS011;43152;50.968;18.214;2023-11-19T15:59:16;35.70;;;20.40;;
57307;SDS011;43152;50.968;18.214;2023-11-19T16:09:00;49.00;;;29.90;;
57307;SDS011;43152;50.968;18.214;2023-11-19T16:18:43;20.80;;;10.20;;
57307;SDS011;43152;50.968;18.214;2023-11-19T16:35:43;19.50;;;8.00;;
57307;SDS011;43152;50.968;18.214;2023-11-19T16:45:32;26.70;;;15.70;;
57307;SDS011;43152;50.968;18.214;2023-11-19T16:55:15;28.20;;;12.60;;
57307;SDS011;43152;50.968;18.214;2023-11-19T17:05:11;39.60;;;11.80;;
57307;SDS011;43152;50.968;18.214;2023-11-19T17:14:55;30.00;;;14.50;;
57307;SDS011;43152;50.968;18.214;2023-11-19T17:24:55;27.40;;;8.50;;
57307;SDS011;43152;50.968;18.214;2023-11-19T17:34:39;15.70;;;4.50;;
57307;SDS011;43152;50.968;18.214;2023-11-19T17:44:23;16.00;;;5.70;;
57307;SDS011;43152;50.968;18.214;2023-11-19T17:54:05;9.80;;;3.70;;
57307;SDS011;43152;50.968;18.214;2023-11-19T18:03:48;14.50;;;5.40;;
57307;SDS011;43152;50.968;18.214;2023-11-19T18:13:35;11.10;;;4.00;;
57307;SDS011;43152;50.968;18.214;2023-11-19T18:23:18;19.50;;;5.60;;
57307;SDS011;43152;50.968;18.214;2023-11-19T18:33:02;19.70;;;4.50;;
57307;SDS011;43152;50.968;18.214;2023-11-19T18:42:49;7.90;;;3.10;;
57307;SDS011;43152;50.968;18.214;2023-11-19T18:52:35;8.80;;;3.00;;
57307;SDS011;43152;50.968;18.214;2023-11-19T19:02:18;8.60;;;3.70;;
57307;SDS011;43152;50.968;18.214;2023-11-19T19:14:49;9.10;;;4.20;;
57307;SDS011;43152;50.968;18.214;2023-11-19T19:24:34;14.00;;;5.50;;
57307;SDS011;43152;50.968;18.214;2023-11-19T19:34:21;16.00;;;6.60;;
57307;SDS011;43152;50.968;18.214;2023-11-19T19:44:06;20.80;;;7.10;;
57307;SDS011;43152;50.968;18.214;2023-11-19T19:53:50;18.70;;;4.40;;
57307;SDS011;43152;50.968;18.214;2023-11-19T20:03:36;11.70;;;4.20;;
57307;SDS011;43152;50.968;18.214;2023-11-19T20:13:23;11.90;;;4.40;;
57307;SDS011;43152;50.968;18.214;2023-11-19T20:23:11;10.90;;;2.90;;
57307;SDS011;43152;50.968;18.214;2023-11-19T20:32:54;19.50;;;6.00;;
57307;SDS011;43152;50.968;18.214;2023-11-19T20:42:37;11.00;;;3.80;;
57307;SDS011;43152;50.968;18.214;2023-11-19T20:59:38;18.50;;;6.60;;
57307;SDS011;43152;50.968;18.214;2023-11-19T21:09:22;14.50;;;5.60;;
57307;SDS011;43152;50.968;18.214;2023-11-19T21:19:07;7.90;;;3.90;;
57307;SDS011;43152;50.968;18.214;2023-11-19T21:28:51;13.10;;;4.10;;
57307;SDS011;43152;50.968;18.214;2023-11-19T21:38:36;15.50;;;6.20;;
57307;SDS011;43152;50.968;18.214;2023-11-19T21:48:19;10.30;;;4.20;;
57307;SDS011;43152;50.968;18.214;2023-11-19T21:58:02;15.40;;;4.80;;
57307;SDS011;43152;50.968;18.214;2023-11-19T22:07:46;17.30;;;5.60;;
57307;SDS011;43152;50.968;18.214;2023-11-19T22:17:32;11.10;;;4.30;;
57307;SDS011;43152;50.968;18.214;2023-11-19T22:27:15;15.10;;;3.40;;
57307;SDS011;43152;50.968;18.214;2023-11-19T22:36:57;6.20;;;2.50;;
57307;SDS011;43152;50.968;18.214;2023-11-19T22:46:39;17.20;;;4.90;;
57307;SDS011;43152;50.968;18.214;2023-11-19T22:56:22;10.00;;;2.70;;
57307;SDS011;43152;50.968;18.214;2023-11-19T23:21:23;9.80;;;3.40;;
57307;SDS011;43152;50.968;18.214;2023-11-19T23:31:05;9.80;;;3.40;;
57307;SDS011;43152;50.968;18.214;2023-11-19T23:40:47;7.40;;;1.70;;
57307;SDS011;43152;50.968;18.214;2023-11-19T23:50:30;10.50;;;3.60;;
